createdAt,value
2023-01-23T00:01:35.256Z,87.88
2023-01-23T00:04:04.312Z,87.84
2023-01-23T00:06:32.319Z,87.86
2023-01-23T00:09:01.077Z,87.83
2023-01-23T00:11:31.498Z,87.81
2023-01-23T00:14:01.102Z,87.82
2023-01-23T00:16:32.967Z,87.76
2023-01-23T00:19:03.800Z,87.81
2023-01-23T00:21:31.511Z,87.79
2023-01-23T00:24:01.314Z,87.79
2023-01-23T00:26:34.867Z,87.82
2023-01-23T00:29:04.499Z,87.80
2023-01-23T00:31:36.821Z,87.85
2023-01-23T00:34:08.157Z,87.82
2023-01-23T00:36:44.124Z,87.76
2023-01-23T00:39:16.995Z,87.73
2023-01-23T00:41:47.221Z,87.64
2023-01-23T00:44:16.102Z,87.61
2023-01-23T00:46:44.396Z,87.54
2023-01-23T00:49:12.798Z,87.51
2023-01-23T00:51:40.730Z,87.44
2023-01-23T00:54:08.576Z,87.41
2023-01-23T00:56:36.360Z,87.37
2023-01-23T00:59:04.216Z,87.27
2023-01-23T01:01:32.308Z,87.17
2023-01-23T01:04:00.624Z,87.08
2023-01-23T01:06:30.034Z,87.03
2023-01-23T01:08:59.610Z,86.94
2023-01-23T01:11:27.186Z,86.91
2023-01-23T01:13:55.177Z,86.88
2023-01-23T01:16:25.152Z,86.86
2023-01-23T01:18:53.055Z,86.78
2023-01-23T01:21:20.851Z,86.74
2023-01-23T01:23:48.692Z,86.67
2023-01-23T01:26:17.800Z,86.65
2023-01-23T01:28:47.603Z,86.59
2023-01-23T01:31:16.561Z,86.57
2023-01-23T01:33:45.197Z,86.46
2023-01-23T01:36:16.462Z,86.37
2023-01-23T01:38:46.472Z,86.34
2023-01-23T01:41:15.787Z,86.29
2023-01-23T01:43:44.239Z,86.14
2023-01-23T01:46:25.537Z,86.08
2023-01-23T01:49:22.065Z,86.00
2023-01-23T01:51:58.095Z,85.75
2023-01-23T01:54:55.404Z,85.71
2023-01-23T01:57:33.445Z,85.67
2023-01-23T02:00:17.306Z,85.61
2023-01-23T02:03:01.043Z,85.55
2023-01-23T02:05:45.318Z,85.49
2023-01-23T02:08:48.724Z,85.44
2023-01-23T02:11:18.091Z,85.40
2023-01-23T02:13:46.001Z,85.38
2023-01-23T02:16:19.080Z,85.36
2023-01-23T02:18:53.227Z,85.34
2023-01-23T02:21:25.366Z,85.37
2023-01-23T02:24:04.967Z,85.31
2023-01-23T02:26:37.850Z,85.25
2023-01-23T02:29:06.452Z,85.22
2023-01-23T02:31:36.868Z,85.20
2023-01-23T02:34:05.825Z,85.14
2023-01-23T02:36:35.060Z,85.04
2023-01-23T02:39:08.263Z,85.03
2023-01-23T02:41:40.679Z,84.97
2023-01-23T02:44:28.654Z,84.97
2023-01-23T02:47:03.408Z,84.96
2023-01-23T02:49:31.366Z,84.96
2023-01-23T02:51:59.869Z,84.85
2023-01-23T02:54:27.941Z,84.87
2023-01-23T02:56:57.904Z,84.85
2023-01-23T02:59:44.534Z,84.76
2023-01-23T03:02:14.037Z,84.71
2023-01-23T03:04:42.028Z,84.69
2023-01-23T03:07:10.371Z,84.66
2023-01-23T03:09:39.121Z,84.63
2023-01-23T03:12:08.689Z,84.53
2023-01-23T03:14:37.024Z,84.44
2023-01-23T03:17:04.954Z,84.47
2023-01-23T03:19:35.293Z,84.38
2023-01-23T03:22:03.298Z,84.37
2023-01-23T03:24:34.557Z,84.43
2023-01-23T03:27:02.711Z,84.39
2023-01-23T03:29:50.525Z,84.31
2023-01-23T03:32:18.529Z,84.29
2023-01-23T03:34:46.682Z,84.20
2023-01-23T03:37:14.944Z,84.17
2023-01-23T03:40:02.648Z,84.05
2023-01-23T03:42:35.253Z,83.97
2023-01-23T03:45:05.617Z,83.96
2023-01-23T03:47:34.783Z,83.93
2023-01-23T03:50:02.922Z,83.93
2023-01-23T03:52:32.779Z,83.92
2023-01-23T03:55:00.825Z,83.96
2023-01-23T03:57:28.687Z,83.96
2023-01-23T04:00:01.311Z,83.92
2023-01-23T04:02:31.664Z,83.92
2023-01-23T04:04:59.640Z,83.91
2023-01-23T04:07:27.625Z,83.89
2023-01-23T04:09:55.329Z,83.92
2023-01-23T04:12:23.151Z,83.92
2023-01-23T04:14:50.912Z,83.95
2023-01-23T04:17:18.616Z,83.97
2023-01-23T04:19:46.540Z,83.98
2023-01-23T04:22:14.521Z,83.98
2023-01-23T04:24:44.280Z,83.98
2023-01-23T04:27:12.375Z,83.97
2023-01-23T04:29:40.338Z,84.02
2023-01-23T04:32:09.481Z,84.06
2023-01-23T04:34:39.179Z,84.09
2023-01-23T04:37:07.314Z,84.09
2023-01-23T04:39:35.080Z,84.12
2023-01-23T04:42:03.078Z,84.10
2023-01-23T04:44:50.467Z,84.14
2023-01-23T04:47:27.418Z,84.12
2023-01-23T04:49:56.035Z,84.13
2023-01-23T04:52:23.577Z,84.16
2023-01-23T04:54:56.207Z,84.19
2023-01-23T04:57:24.415Z,84.22
2023-01-23T04:59:54.274Z,84.23
2023-01-23T05:02:22.406Z,84.22
2023-01-23T05:04:50.541Z,84.25
2023-01-23T05:07:19.147Z,84.25
2023-01-23T05:09:48.600Z,84.23
2023-01-23T05:12:17.720Z,84.25
2023-01-23T05:14:45.447Z,84.28
2023-01-23T05:17:14.669Z,84.26
2023-01-23T05:19:44.153Z,84.28
2023-01-23T05:22:12.451Z,84.24
2023-01-23T05:24:40.174Z,84.25
2023-01-23T05:27:09.158Z,84.23
2023-01-23T05:29:38.776Z,84.24
2023-01-23T05:32:14.426Z,84.27
2023-01-23T05:34:44.840Z,84.22
2023-01-23T05:37:22.102Z,84.17
2023-01-23T05:39:52.018Z,84.19
2023-01-23T05:42:20.076Z,84.18
2023-01-23T05:44:49.705Z,84.18
2023-01-23T05:47:21.940Z,84.11
2023-01-23T05:49:50.032Z,84.12
2023-01-23T05:52:18.102Z,84.13
2023-01-23T05:54:46.250Z,84.13
2023-01-23T05:57:14.339Z,84.11
2023-01-23T05:59:53.581Z,84.09
2023-01-23T06:02:23.240Z,84.11
2023-01-23T06:05:09.661Z,84.10
2023-01-23T06:07:48.694Z,84.04
2023-01-23T06:10:16.684Z,84.07
2023-01-23T06:12:44.571Z,84.21
2023-01-23T06:15:12.611Z,83.77
2023-01-23T06:17:40.595Z,83.25
2023-01-23T06:20:10.459Z,83.16
2023-01-23T06:22:39.198Z,83.73
2023-01-23T06:25:09.572Z,82.96
2023-01-23T06:27:37.781Z,81.51
2023-01-23T06:30:08.747Z,81.30
2023-01-23T06:32:38.522Z,81.09
2023-01-23T06:35:07.537Z,79.62
2023-01-23T06:37:37.014Z,79.56
2023-01-23T06:40:05.901Z,80.42
2023-01-23T06:42:33.982Z,79.94
2023-01-23T06:45:02.135Z,78.92
2023-01-23T06:47:30.731Z,77.46
2023-01-23T06:50:01.926Z,76.69
2023-01-23T06:52:31.139Z,77.03
2023-01-23T06:54:59.349Z,75.40
2023-01-23T06:57:27.616Z,73.74
2023-01-23T06:59:58.737Z,72.89
2023-01-23T07:02:26.737Z,72.25
2023-01-23T07:04:55.732Z,73.30
2023-01-23T07:07:23.357Z,72.60
2023-01-23T07:09:51.203Z,72.79
2023-01-23T07:12:21.129Z,71.84
2023-01-23T07:14:49.059Z,71.95
2023-01-23T07:17:18.592Z,72.19
2023-01-23T07:19:46.727Z,71.74
2023-01-23T07:22:21.339Z,71.08
2023-01-23T07:24:48.904Z,71.41
2023-01-23T07:27:16.585Z,71.40
2023-01-23T07:29:44.358Z,70.26
2023-01-23T07:32:12.234Z,70.41
2023-01-23T07:34:40.055Z,68.94
2023-01-23T07:37:07.820Z,69.70
2023-01-23T07:39:35.480Z,69.13
2023-01-23T07:42:03.301Z,68.40
2023-01-23T07:44:30.851Z,68.50
2023-01-23T07:46:58.578Z,67.83
2023-01-23T07:49:26.341Z,67.11
2023-01-23T07:51:53.829Z,66.94
2023-01-23T07:54:21.674Z,67.29
2023-01-23T07:56:50.675Z,67.63
2023-01-23T07:59:18.461Z,67.09
2023-01-23T08:01:46.322Z,67.13
2023-01-23T08:04:14.274Z,66.19
2023-01-23T08:06:41.952Z,66.77
2023-01-23T08:09:09.602Z,65.79
2023-01-23T08:11:37.223Z,66.05
2023-01-23T08:14:05.025Z,65.71
2023-01-23T08:16:32.697Z,65.88
2023-01-23T08:19:00.523Z,65.06
2023-01-23T08:21:29.196Z,64.88
2023-01-23T08:23:57.067Z,65.20
2023-01-23T08:26:24.837Z,65.13
2023-01-23T08:28:52.784Z,65.54
2023-01-23T08:31:20.862Z,64.82
2023-01-23T08:33:48.683Z,65.53
2023-01-23T08:36:16.586Z,64.93
2023-01-23T08:38:44.271Z,63.64
2023-01-23T08:41:12.102Z,63.29
2023-01-23T08:43:41.088Z,63.73
2023-01-23T08:46:10.169Z,62.99
2023-01-23T08:48:40.671Z,61.66
2023-01-23T08:51:12.443Z,62.51
2023-01-23T08:53:41.375Z,62.35
2023-01-23T08:56:17.113Z,62.60
2023-01-23T08:58:45.604Z,61.91
2023-01-23T09:01:20.488Z,61.40
2023-01-23T09:03:48.277Z,60.11
2023-01-23T09:06:20.177Z,58.73
2023-01-23T09:08:48.044Z,57.29
2023-01-23T09:11:22.808Z,58.05
2023-01-23T09:13:52.937Z,58.48
2023-01-23T09:16:20.135Z,58.53
2023-01-23T09:18:47.853Z,58.41
2023-01-23T09:21:17.497Z,57.21
2023-01-23T09:23:45.647Z,58.36
2023-01-23T09:26:14.687Z,56.11
2023-01-23T09:28:43.091Z,54.34
2023-01-23T09:31:13.492Z,54.91
2023-01-23T09:33:42.299Z,55.63
2023-01-23T09:36:13.044Z,54.10
2023-01-23T09:38:40.894Z,54.05
2023-01-23T09:41:19.514Z,54.55
2023-01-23T09:44:06.001Z,54.35
2023-01-23T09:46:51.378Z,52.28
2023-01-23T09:49:52.666Z,52.26
2023-01-23T09:52:24.422Z,52.42
2023-01-23T09:55:03.677Z,53.62
2023-01-23T09:57:36.047Z,52.92
2023-01-23T10:00:21.558Z,51.20
2023-01-23T10:02:49.890Z,51.73
2023-01-23T10:05:20.889Z,51.25
2023-01-23T10:08:08.553Z,51.05
2023-01-23T10:10:54.011Z,48.63
2023-01-23T10:14:00.340Z,49.42
2023-01-23T10:16:52.170Z,49.14
2023-01-23T10:19:44.846Z,48.67
2023-01-23T10:22:29.773Z,49.43
2023-01-23T10:24:58.814Z,50.62
2023-01-23T10:27:39.177Z,50.91
2023-01-23T10:30:27.857Z,49.74
2023-01-23T10:33:00.682Z,48.57
2023-01-23T10:35:54.855Z,47.79
2023-01-23T10:39:00.503Z,44.72
2023-01-23T10:41:28.647Z,45.36
2023-01-23T10:43:57.145Z,44.88
2023-01-23T10:46:35.216Z,43.09
2023-01-23T10:49:04.294Z,42.72
2023-01-23T10:51:45.446Z,42.66
2023-01-23T10:54:31.221Z,43.17
2023-01-23T10:57:07.068Z,42.12
2023-01-23T11:00:02.590Z,42.17
2023-01-23T11:02:34.864Z,41.11
2023-01-23T11:05:23.839Z,41.31
2023-01-23T11:07:55.623Z,40.37
2023-01-23T11:10:27.690Z,39.90
2023-01-23T11:12:56.109Z,39.46
2023-01-23T11:15:31.374Z,39.82
2023-01-23T11:18:00.600Z,38.85
2023-01-23T11:20:38.238Z,38.92
2023-01-23T11:23:12.032Z,38.22
2023-01-23T11:25:43.868Z,38.95
2023-01-23T11:28:31.217Z,39.26
2023-01-23T11:31:17.478Z,38.96
2023-01-23T11:33:57.516Z,39.16
2023-01-23T11:36:31.351Z,38.49
2023-01-23T11:39:02.233Z,38.53
2023-01-23T11:41:32.867Z,39.45
2023-01-23T11:44:03.824Z,40.23
2023-01-23T11:46:54.827Z,38.76
2023-01-23T11:49:29.016Z,39.32
2023-01-23T11:52:12.065Z,38.14
2023-01-23T11:55:02.784Z,37.93
2023-01-23T11:57:48.846Z,38.91
2023-01-23T12:00:44.333Z,38.05
2023-01-23T12:03:15.273Z,38.51
2023-01-23T12:06:19.970Z,38.03
2023-01-23T12:09:02.952Z,37.98
2023-01-23T12:11:33.903Z,39.10
2023-01-23T12:14:19.871Z,37.84
2023-01-23T12:17:04.721Z,37.86
2023-01-23T12:19:58.856Z,38.90
2023-01-23T12:22:36.131Z,38.84
2023-01-23T12:25:16.074Z,38.40
2023-01-23T12:27:54.969Z,38.80
2023-01-23T12:30:36.857Z,39.75
2023-01-23T12:33:23.871Z,39.92
2023-01-23T12:36:12.712Z,40.39
2023-01-23T12:39:00.326Z,38.61
2023-01-23T12:41:43.776Z,38.94
2023-01-23T12:44:14.684Z,39.32
2023-01-23T12:46:57.856Z,39.98
2023-01-23T12:49:40.645Z,39.36
2023-01-23T12:52:17.826Z,38.74
2023-01-23T12:54:52.090Z,39.33
2023-01-23T12:57:27.251Z,38.27
2023-01-23T13:00:00.682Z,38.45
2023-01-23T13:02:40.201Z,39.00
2023-01-23T13:05:15.852Z,39.39
2023-01-23T13:08:09.753Z,40.03
2023-01-23T13:11:09.129Z,39.72
2023-01-23T13:13:36.499Z,38.78
2023-01-23T13:16:12.884Z,39.08
2023-01-23T13:18:58.860Z,39.40
2023-01-23T13:21:44.802Z,39.53
2023-01-23T13:24:49.189Z,39.83
2023-01-23T13:27:41.378Z,39.76
2023-01-23T13:30:35.496Z,40.12
2023-01-23T13:33:14.907Z,39.93
2023-01-23T13:35:46.156Z,40.49
2023-01-23T13:38:29.309Z,40.38
2023-01-23T13:41:08.836Z,39.78
2023-01-23T13:43:56.383Z,40.30
2023-01-23T13:46:42.082Z,40.79
2023-01-23T13:49:53.220Z,40.81
2023-01-23T13:52:43.813Z,40.24
2023-01-23T13:55:45.386Z,40.90
2023-01-23T13:58:15.964Z,41.43
2023-01-23T14:00:49.043Z,40.31
2023-01-23T14:03:44.269Z,40.56
2023-01-23T14:06:11.962Z,40.25
2023-01-23T14:08:50.686Z,40.22
2023-01-23T14:11:20.928Z,40.33
2023-01-23T14:13:58.007Z,40.54
2023-01-23T14:16:25.427Z,40.85
2023-01-23T14:18:55.274Z,41.00
2023-01-23T14:21:30.524Z,41.31
2023-01-23T14:23:59.743Z,41.09
2023-01-23T14:26:31.953Z,41.36
2023-01-23T14:29:04.011Z,41.66
2023-01-23T14:31:36.943Z,41.75
2023-01-23T14:34:10.434Z,41.44
2023-01-23T14:36:37.293Z,41.93
2023-01-23T14:39:05.330Z,41.45
2023-01-23T14:41:38.249Z,41.12
2023-01-23T14:44:04.895Z,41.58
2023-01-23T14:46:42.951Z,42.00
2023-01-23T14:49:10.737Z,42.04
2023-01-23T14:51:38.344Z,42.14
2023-01-23T14:54:20.354Z,41.70
2023-01-23T14:56:46.819Z,41.85
2023-01-23T14:59:29.798Z,41.16
2023-01-23T15:02:00.716Z,42.49
2023-01-23T15:04:29.140Z,42.81
2023-01-23T15:06:58.879Z,42.48
2023-01-23T15:09:40.059Z,43.08
2023-01-23T15:12:14.045Z,43.70
2023-01-23T15:14:41.973Z,44.07
2023-01-23T15:17:18.167Z,44.67
2023-01-23T15:19:50.773Z,45.36
2023-01-23T15:22:21.224Z,45.90
2023-01-23T15:24:51.481Z,46.58
2023-01-23T15:27:33.224Z,46.72
2023-01-23T15:30:37.832Z,46.86
2023-01-23T15:33:08.607Z,47.00
2023-01-23T15:35:37.485Z,47.44
2023-01-23T15:38:08.402Z,47.63
2023-01-23T15:40:37.663Z,47.87
2023-01-23T15:43:08.169Z,47.74
2023-01-23T15:45:35.501Z,48.02
2023-01-23T15:48:02.868Z,48.15
2023-01-23T15:50:30.318Z,48.32
2023-01-23T15:52:57.991Z,48.36
2023-01-23T15:55:26.719Z,48.32
2023-01-23T15:57:55.097Z,48.36
2023-01-23T16:00:25.165Z,48.37
2023-01-23T16:02:57.370Z,48.06
2023-01-23T16:05:26.838Z,47.66
2023-01-23T16:07:56.121Z,47.48
2023-01-23T16:10:25.940Z,47.48
2023-01-23T16:12:56.831Z,47.14
2023-01-23T16:15:27.610Z,46.85
2023-01-23T16:17:55.746Z,45.63
2023-01-23T16:20:33.882Z,45.75
2023-01-23T16:23:14.063Z,45.54
2023-01-23T16:25:44.541Z,45.66
2023-01-23T16:28:13.141Z,45.60
2023-01-23T16:30:40.590Z,44.39
2023-01-23T16:33:08.299Z,44.67
2023-01-23T16:35:35.839Z,44.31
2023-01-23T16:38:03.321Z,42.09
2023-01-23T16:40:31.506Z,42.85
2023-01-23T16:42:59.537Z,43.15
2023-01-23T16:45:29.894Z,43.92
2023-01-23T16:47:57.339Z,44.19
2023-01-23T16:50:33.637Z,44.84
2023-01-23T16:53:25.573Z,45.12
2023-01-23T16:55:57.902Z,46.09
2023-01-23T16:58:31.772Z,45.84
2023-01-23T17:01:04.629Z,46.36
2023-01-23T17:03:36.786Z,46.92
2023-01-23T17:06:04.454Z,47.21
2023-01-23T17:08:31.967Z,47.46
2023-01-23T17:11:03.021Z,47.71
2023-01-23T17:13:34.068Z,47.96
2023-01-23T17:16:03.669Z,48.29
2023-01-23T17:18:33.816Z,48.58
2023-01-23T17:21:02.225Z,49.03
2023-01-23T17:23:29.758Z,49.32
2023-01-23T17:26:01.308Z,49.82
2023-01-23T17:28:29.535Z,49.90
2023-01-23T17:30:59.643Z,50.12
2023-01-23T17:33:30.592Z,50.32
2023-01-23T17:35:58.267Z,50.75
2023-01-23T17:38:27.980Z,51.38
2023-01-23T17:40:55.424Z,51.96
2023-01-23T17:43:23.651Z,52.16
2023-01-23T17:45:51.390Z,52.43
2023-01-23T17:48:22.478Z,52.56
2023-01-23T17:50:50.038Z,52.67
2023-01-23T17:53:18.819Z,52.93
2023-01-23T17:55:50.797Z,53.03
2023-01-23T17:58:18.989Z,53.29
2023-01-23T18:00:48.738Z,53.74
2023-01-23T18:03:22.672Z,54.23
2023-01-23T18:05:51.097Z,54.70
2023-01-23T18:08:21.456Z,55.22
2023-01-23T18:10:51.513Z,55.36
2023-01-23T18:13:52.409Z,55.75
2023-01-23T18:16:29.325Z,56.57
2023-01-23T18:18:59.216Z,56.93
2023-01-23T18:21:27.344Z,57.16
2023-01-23T18:23:55.084Z,57.17
2023-01-23T18:26:38.501Z,57.47
2023-01-23T18:29:18.886Z,57.38
2023-01-23T18:31:55.431Z,58.33
2023-01-23T18:34:43.803Z,57.98
2023-01-23T18:37:47.850Z,58.19
2023-01-23T18:40:22.383Z,58.52
2023-01-23T18:42:56.193Z,58.94
2023-01-23T18:45:30.833Z,58.67
2023-01-23T18:48:25.019Z,59.01
2023-01-23T18:51:06.259Z,59.13
2023-01-23T18:54:13.195Z,59.20
2023-01-23T18:57:09.857Z,59.61
2023-01-23T18:59:49.716Z,60.17
2023-01-23T19:02:24.115Z,60.17
2023-01-23T19:05:10.928Z,60.01
2023-01-23T19:07:39.780Z,60.02
2023-01-23T19:10:12.676Z,60.21
2023-01-23T19:12:46.812Z,60.11
2023-01-23T19:15:29.575Z,60.41
2023-01-23T19:18:11.495Z,60.67
2023-01-23T19:20:45.916Z,61.02
2023-01-23T19:23:25.549Z,61.06
2023-01-23T19:25:53.513Z,61.11
2023-01-23T19:28:21.460Z,61.35
2023-01-23T19:30:49.938Z,61.79
2023-01-23T19:33:18.509Z,61.45
2023-01-23T19:35:46.424Z,61.51
2023-01-23T19:38:14.384Z,61.53
2023-01-23T19:40:42.492Z,61.74
2023-01-23T19:43:18.732Z,61.93
2023-01-23T19:45:46.450Z,61.98
2023-01-23T19:48:27.944Z,62.21
2023-01-23T19:51:03.288Z,62.17
2023-01-23T19:53:32.163Z,62.18
2023-01-23T19:56:05.526Z,62.26
2023-01-23T19:58:33.970Z,62.30
2023-01-23T20:01:02.053Z,62.39
2023-01-23T20:03:29.926Z,62.44
2023-01-23T20:06:00.042Z,62.70
2023-01-23T20:08:27.396Z,63.96
2023-01-23T20:10:54.596Z,63.41
2023-01-23T20:13:22.163Z,63.50
2023-01-23T20:15:50.704Z,63.76
2023-01-23T20:18:18.129Z,63.99
2023-01-23T20:20:45.681Z,64.06
2023-01-23T20:23:13.358Z,64.33
2023-01-23T20:25:42.077Z,64.75
2023-01-23T20:28:10.619Z,65.01
2023-01-23T20:30:38.828Z,65.41
2023-01-23T20:33:07.072Z,65.27
2023-01-23T20:35:37.285Z,65.42
2023-01-23T20:38:04.872Z,65.91
2023-01-23T20:40:34.210Z,66.26
2023-01-23T20:43:03.247Z,66.12
2023-01-23T20:45:34.692Z,66.28
2023-01-23T20:48:04.355Z,66.21
2023-01-23T20:50:31.803Z,66.23
2023-01-23T20:53:17.325Z,66.37
2023-01-23T20:55:45.454Z,66.54
2023-01-23T20:58:31.261Z,66.70
2023-01-23T21:00:58.912Z,66.70
2023-01-23T21:03:26.620Z,66.93
2023-01-23T21:05:54.369Z,67.09
2023-01-23T21:08:22.783Z,67.22
2023-01-23T21:10:55.895Z,67.39
2023-01-23T21:13:23.618Z,67.51
2023-01-23T21:16:07.695Z,67.84
2023-01-23T21:18:38.152Z,67.83
2023-01-23T21:21:07.572Z,68.14
2023-01-23T21:23:38.600Z,68.29
2023-01-23T21:26:08.441Z,68.44
2023-01-23T21:28:36.044Z,68.34
2023-01-23T21:31:27.409Z,68.36
2023-01-23T21:33:55.180Z,68.41
2023-01-23T21:36:24.453Z,68.48
2023-01-23T21:38:52.551Z,68.45
2023-01-23T21:41:20.768Z,68.58
2023-01-23T21:43:48.454Z,68.80
2023-01-23T21:46:16.199Z,68.95
2023-01-23T21:48:43.715Z,68.98
2023-01-23T21:51:16.122Z,68.87
2023-01-23T21:53:45.913Z,68.85
2023-01-23T21:56:15.545Z,69.05
2023-01-23T21:58:43.989Z,69.15
2023-01-23T22:01:32.578Z,69.12
2023-01-23T22:04:09.782Z,69.16
2023-01-23T22:06:38.979Z,69.30
2023-01-23T22:09:07.507Z,69.47
2023-01-23T22:11:35.272Z,69.25
2023-01-23T22:14:02.872Z,69.75
2023-01-23T22:16:47.116Z,69.51
2023-01-23T22:18:59.791Z,69.58
2023-01-23T22:21:27.226Z,69.77
2023-01-23T22:23:54.524Z,69.94
2023-01-23T22:26:22.386Z,70.19
2023-01-23T22:28:50.382Z,70.39
2023-01-23T22:31:17.988Z,70.91
2023-01-23T22:33:47.672Z,70.86
2023-01-23T22:36:17.838Z,71.32
2023-01-23T22:38:51.789Z,71.44
2023-01-23T22:41:19.335Z,71.86
2023-01-23T22:43:46.770Z,71.60
2023-01-23T22:46:15.901Z,71.77
2023-01-23T22:48:43.559Z,71.64
2023-01-23T22:51:15.926Z,71.77
2023-01-23T22:53:43.483Z,72.36
2023-01-23T22:56:11.329Z,72.75
2023-01-23T22:58:39.165Z,73.48
2023-01-23T23:01:06.517Z,73.23
2023-01-23T23:03:34.284Z,72.84
2023-01-23T23:06:04.576Z,72.91
2023-01-23T23:08:33.308Z,73.12
2023-01-23T23:11:06.210Z,74.03
2023-01-23T23:13:36.107Z,75.05
2023-01-23T23:16:06.501Z,75.45
2023-01-23T23:18:38.190Z,75.57
2023-01-23T23:21:07.186Z,75.87
2023-01-23T23:23:35.675Z,75.16
2023-01-23T23:26:04.435Z,74.81
2023-01-23T23:28:31.976Z,74.33
2023-01-23T23:30:59.634Z,74.05
2023-01-23T23:33:27.689Z,73.94
2023-01-23T23:35:57.951Z,73.95
2023-01-23T23:38:26.381Z,73.83
2023-01-23T23:40:58.336Z,74.07
2023-01-23T23:43:26.809Z,74.01
2023-01-23T23:45:56.046Z,73.98
2023-01-23T23:48:25.080Z,73.92
2023-01-23T23:50:52.874Z,74.15
2023-01-23T23:53:22.211Z,74.15
2023-01-23T23:55:49.608Z,74.11
2023-01-23T23:58:16.971Z,73.99
